Time;durP1;ratioP1;P1;durP2;ratioP2;P2;SDS_P1;SDS_P2;PMS_P1;PMS_P2;Temp;Humidity;BMP_temperature;BMP_pressure;BME280_temperature;BME280_humidity;BME280_pressure;Samples;Min_cycle;Max_cycle;Signal;HPM_P1;HPM_P2
2023/01/13 00:01:26;;;;;;;;;;;;;;;9.26;63.03;97569.91;5012549;28;19964;-62
2023/01/13 00:03:54;;;;;;;;;;;;;;;9.28;62.73;97572.31;5010308;28;19932;-63
2023/01/13 00:06:25;;;;;;;;;;;;;;;9.22;63.03;97562.72;5012244;28;20298;-61
2023/01/13 00:08:54;;;;;;;;;;;;;;;9.25;62.77;97576.44;5005743;28;19933;-63
2023/01/13 00:11:23;;;;;;;;;;;;;;;9.26;62.76;97567.19;4997390;28;19926;-61
2023/01/13 00:13:51;;;;;;;;;;;;;;;9.22;62.84;97568.94;5007891;28;19926;-63
2023/01/13 00:16:21;;;;;;;;;;;;;;;9.19;63.11;97559.50;5009530;28;19926;-61
2023/01/13 00:18:51;;;;;;;;;;;;;;;9.21;62.86;97561.88;5012318;28;19926;-61
2023/01/13 00:21:19;;;;;;;;;;;;;;;9.25;62.78;97560.16;5003582;28;20394;-62
2023/01/13 00:23:49;;;;;;;;;;;;;;;9.25;62.91;97557.47;5012464;28;19925;-62
2023/01/13 00:29:10;;;;;;;;;;;;;;;9.26;62.72;97558.25;5012133;28;20189;-62
2023/01/13 00:31:38;;;;;;;;;;;;;;;9.24;62.76;97550.44;5010304;28;19932;-61
2023/01/13 00:34:05;;;;;;;;;;;;;;;9.24;63.06;97546.94;5012486;28;19932;-67
2023/01/13 00:36:33;;;;;;;;;;;;;;;9.31;62.91;97536.44;4992390;28;19937;-65
2023/01/13 00:39:03;;;;;;;;;;;;;;;9.30;62.20;97530.22;4994209;28;19933;-62
2023/01/13 00:43:21;;;;;;;;;;;;;;;9.30;62.31;97532.94;4996413;28;19929;-62
2023/01/13 00:44:19;;;;;;;;;;;;;;;9.27;62.75;97539.00;5006865;28;19929;-62
2023/01/13 00:46:47;;;;;;;;;;;;;;;9.29;62.44;97539.47;5013118;28;20260;-60
2023/01/13 00:49:15;;;;;;;;;;;;;;;9.28;62.64;97540.59;5010327;28;20432;-60
2023/01/13 00:55:02;;;;;;;;;;;;;;;9.26;62.76;97537.38;5003722;28;20295;-61
2023/01/13 00:57:31;;;;;;;;;;;;;;;9.27;63.25;97532.75;5009101;28;19925;-61
2023/01/13 00:59:58;;;;;;;;;;;;;;;9.21;63.25;97523.94;5015255;28;19926;-61
2023/01/13 01:02:26;;;;;;;;;;;;;;;9.18;63.34;97532.72;5012359;28;19932;-64
2023/01/13 01:04:55;;;;;;;;;;;;;;;9.15;63.59;97525.19;5008643;28;20636;-62
2023/01/13 01:07:24;;;;;;;;;;;;;;;9.33;62.88;97521.47;5012207;28;20401;-60
2023/01/13 01:09:52;;;;;;;;;;;;;;;9.25;63.38;97519.50;5007252;28;19926;-62
2023/01/13 01:12:21;;;;;;;;;;;;;;;9.33;62.52;97515.25;4993880;28;19937;-62
2023/01/13 01:14:49;;;;;;;;;;;;;;;9.38;62.71;97518.63;5012492;28;19925;-61
2023/01/13 01:17:18;;;;;;;;;;;;;;;9.33;62.62;97509.84;4992601;28;19925;-61
2023/01/13 01:19:46;;;;;;;;;;;;;;;9.25;62.88;97516.78;5009775;28;19933;-61
2023/01/13 01:22:14;;;;;;;;;;;;;;;9.24;62.94;97519.81;5012991;28;19929;-61
2023/01/13 01:24:42;;;;;;;;;;;;;;;9.24;62.54;97511.69;4993545;28;19957;-61
2023/01/13 01:27:36;;;;;;;;;;;;;;;9.27;62.71;97511.06;5012002;28;20395;-61
2023/01/13 01:30:04;;;;;;;;;;;;;;;9.26;62.74;97523.00;5008924;28;19925;-61
2023/01/13 01:32:33;;;;;;;;;;;;;;;9.40;62.44;97515.59;5010828;28;20371;-61
2023/01/13 01:35:03;;;;;;;;;;;;;;;9.32;62.71;97514.47;5009897;28;20397;-60
2023/01/13 01:37:31;;;;;;;;;;;;;;;9.25;63.17;97518.72;5005632;28;19933;-61
2023/01/13 01:39:59;;;;;;;;;;;;;;;9.36;62.46;97515.41;5008157;28;19925;-61
2023/01/13 01:45:39;;;;;;;;;;;;;;;9.33;62.79;97505.22;4996144;28;20370;-61
2023/01/13 01:48:07;;;;;;;;;;;;;;;9.49;62.22;97502.88;5013418;28;20130;-61
2023/01/13 01:50:36;;;;;;;;;;;;;;;9.34;62.73;97498.66;5018501;28;19926;-61
2023/01/13 01:53:07;;;;;;;;;;;;;;;9.39;62.69;97500.44;5010361;28;20441;-61
2023/01/13 01:55:38;;;;;;;;;;;;;;;9.37;62.14;97489.09;5011311;28;19926;-61
2023/01/13 01:58:07;;;;;;;;;;;;;;;9.40;62.49;97481.16;5011044;28;19995;-62
2023/01/13 02:00:35;;;;;;;;;;;;;;;9.33;62.70;97477.31;5013703;28;19925;-62
2023/01/13 02:03:04;;;;;;;;;;;;;;;9.41;62.38;97473.81;5011252;28;19929;-61
2023/01/13 02:05:33;;;;;;;;;;;;;;;9.30;62.61;97470.56;5008610;28;19940;-61
2023/01/13 02:08:01;;;;;;;;;;;;;;;9.28;62.90;97470.09;5011715;28;20371;-61
2023/01/13 02:10:29;;;;;;;;;;;;;;;9.28;62.48;97470.09;4997390;28;19940;-61
2023/01/13 02:13:00;;;;;;;;;;;;;;;9.16;63.47;97478.00;5009200;28;20294;-61
2023/01/13 02:15:30;;;;;;;;;;;;;;;9.16;63.31;97473.41;4999504;28;19933;-61
2023/01/13 02:18:05;;;;;;;;;;;;;;;9.18;63.31;97468.47;5009613;28;19959;-61
2023/01/13 02:20:49;;;;;;;;;;;;;;;9.26;63.27;97463.38;5011600;28;19929;-61
2023/01/13 02:26:39;;;;;;;;;;;;;;;9.39;62.86;97452.44;4988319;28;19925;-61
2023/01/13 02:32:59;;;;;;;;;;;;;;;9.26;63.45;97444.41;5006545;28;20096;-63
2023/01/13 02:35:27;;;;;;;;;;;;;;;9.21;63.54;97445.34;5006151;28;19965;-61
2023/01/13 02:37:58;;;;;;;;;;;;;;;9.21;63.26;97442.63;4996743;28;20403;-62
2023/01/13 02:40:26;;;;;;;;;;;;;;;9.21;63.32;97439.94;5010441;28;19972;-61
2023/01/13 02:45:43;;;;;;;;;;;;;;;9.19;63.77;97428.59;5008395;28;20041;-62
2023/01/13 02:48:13;;;;;;;;;;;;;;;9.37;63.07;97419.41;5010552;28;19925;-62
2023/01/13 02:50:42;;;;;;;;;;;;;;;9.32;63.20;97430.41;5010123;28;19930;-65
2023/01/13 02:53:14;;;;;;;;;;;;;;;9.34;63.05;97433.59;4992931;28;19964;-62
2023/01/13 02:55:42;;;;;;;;;;;;;;;9.36;62.89;97428.66;4993213;28;20331;-61
2023/01/13 02:58:11;;;;;;;;;;;;;;;9.36;63.09;97434.06;4994511;28;20028;-61
2023/01/13 03:00:39;;;;;;;;;;;;;;;9.31;63.69;97428.78;4995438;28;20454;-61
2023/01/13 03:03:07;;;;;;;;;;;;;;;9.37;63.23;97426.75;4991163;28;19926;-61
2023/01/13 03:05:37;;;;;;;;;;;;;;;9.37;63.05;97429.44;4984016;28;20330;-61
2023/01/13 03:08:20;;;;;;;;;;;;;;;9.38;62.95;97422.94;4993684;28;20017;-61
2023/01/13 03:10:56;;;;;;;;;;;;;;;9.39;62.83;97422.63;4994220;28;19936;-61
2023/01/13 03:13:35;;;;;;;;;;;;;;;9.59;62.38;97421.22;4997304;28;19926;-61
2023/01/13 03:16:05;;;;;;;;;;;;;;;9.47;62.63;97409.38;4993278;28;20004;-61
2023/01/13 03:18:36;;;;;;;;;;;;;;;9.45;63.00;97405.09;5000632;28;19933;-61
2023/01/13 03:21:06;;;;;;;;;;;;;;;9.34;63.49;97414.63;4993226;28;19965;-61
2023/01/13 03:23:35;;;;;;;;;;;;;;;9.39;63.18;97411.78;4994197;28;19933;-61
2023/01/13 03:26:06;;;;;;;;;;;;;;;9.42;62.41;97411.13;4992766;28;20375;-61
2023/01/13 03:28:36;;;;;;;;;;;;;;;9.36;63.13;97414.31;5011412;28;19933;-61
2023/01/13 03:31:05;;;;;;;;;;;;;;;9.36;62.70;97406.97;5003660;28;19938;-61
2023/01/13 03:33:34;;;;;;;;;;;;;;;9.27;63.29;97421.59;4992789;28;19930;-61
2023/01/13 03:36:28;;;;;;;;;;;;;;;9.32;62.82;97406.03;4986428;28;20124;-61
2023/01/13 03:38:57;;;;;;;;;;;;;;;9.38;62.63;97415.59;4995890;28;20015;-61
2023/01/13 03:41:27;;;;;;;;;;;;;;;9.28;62.94;97410.47;4995378;28;19933;-61
2023/01/13 03:46:43;;;;;;;;;;;;;;;9.35;62.85;97410.00;4994199;28;20303;-64
2023/01/13 03:49:35;;;;;;;;;;;;;;;9.27;62.73;97405.34;4995909;28;19930;-61
2023/01/13 03:52:05;;;;;;;;;;;;;;;9.28;63.23;97405.03;4993059;28;19941;-64
2023/01/13 03:54:34;;;;;;;;;;;;;;;9.29;62.88;97406.63;4996851;28;19936;-62
2023/01/13 03:57:02;;;;;;;;;;;;;;;9.19;63.54;97406.94;5013957;28;19933;-62
2023/01/13 03:59:31;;;;;;;;;;;;;;;9.29;63.33;97408.56;5013976;28;19926;-61
2023/01/13 04:02:24;;;;;;;;;;;;;;;9.23;63.11;97405.19;5012627;28;19965;-62
2023/01/13 04:04:56;;;;;;;;;;;;;;;9.19;63.33;97401.50;5011449;28;19979;-63
2023/01/13 04:07:30;;;;;;;;;;;;;;;9.17;63.80;97406.44;4996502;28;19925;-61
2023/01/13 04:09:59;;;;;;;;;;;;;;;9.23;63.36;97410.63;5012362;28;20015;-61
2023/01/13 04:12:59;;;;;;;;;;;;;;;9.19;63.45;97406.94;5014119;28;19925;-61
2023/01/13 04:15:20;;;;;;;;;;;;;;;9.24;63.65;97408.69;5009871;28;20294;-62
2023/01/13 04:17:50;;;;;;;;;;;;;;;9.16;63.88;97402.13;5012447;28;20060;-67
2023/01/13 04:20:18;;;;;;;;;;;;;;;9.22;63.21;97400.09;5009147;28;20031;-63
2023/01/13 04:22:48;;;;;;;;;;;;;;;9.17;63.96;97414.59;5014969;28;19941;-61
2023/01/13 04:25:17;;;;;;;;;;;;;;;9.18;63.70;97416.19;5013645;28;19972;-61
2023/01/13 04:27:45;;;;;;;;;;;;;;;9.20;63.67;97419.34;4989678;28;20341;-62
2023/01/13 04:30:13;;;;;;;;;;;;;;;9.19;63.82;97413.16;5013756;28;19933;-61
2023/01/13 04:32:41;;;;;;;;;;;;;;;9.16;64.00;97423.81;4991771;28;19941;-61
2023/01/13 04:35:09;;;;;;;;;;;;;;;9.16;63.89;97415.66;5013502;28;19952;-61
2023/01/13 04:37:39;;;;;;;;;;;;;;;9.17;63.97;97409.97;5014312;28;20350;-61
2023/01/13 04:40:09;;;;;;;;;;;;;;;9.12;64.40;97401.19;5017367;28;19925;-62
2023/01/13 04:42:38;;;;;;;;;;;;;;;9.10;64.79;97408.81;5016430;28;19980;-61
2023/01/13 04:45:07;;;;;;;;;;;;;;;9.11;64.39;97405.00;5013102;28;19925;-62
2023/01/13 04:47:35;;;;;;;;;;;;;;;9.13;64.18;97403.56;5002598;28;20306;-63
2023/01/13 04:50:03;;;;;;;;;;;;;;;9.16;64.31;97404.84;5011536;28;19934;-61
2023/01/13 04:52:32;;;;;;;;;;;;;;;9.14;64.58;97407.06;4996459;28;19933;-61
2023/01/13 04:54:59;;;;;;;;;;;;;;;9.12;64.42;97412.00;5012653;28;20392;-64
2023/01/13 04:57:29;;;;;;;;;;;;;;;9.17;64.45;97409.16;5013815;28;19940;-63
2023/01/13 04:59:57;;;;;;;;;;;;;;;9.13;64.92;97408.19;5012691;28;19940;-61
2023/01/13 05:02:25;;;;;;;;;;;;;;;9.18;64.78;97408.84;4998534;28;19932;-61
2023/01/13 05:04:54;;;;;;;;;;;;;;;9.16;64.74;97412.97;4994938;28;19979;-62
2023/01/13 05:07:23;;;;;;;;;;;;;;;9.17;64.75;97409.16;5015677;28;20187;-62
2023/01/13 05:09:51;;;;;;;;;;;;;;;9.12;65.11;97404.69;4998853;28;20390;-65
2023/01/13 05:18:40;;;;;;;;;;;;;;;9.23;64.85;97399.78;5015726;28;19926;-62
2023/01/13 05:25:20;;;;;;;;;;;;;;;9.25;64.63;97405.66;5016615;28;19972;-65
2023/01/13 05:26:42;;;;;;;;;;;;;;;9.18;65.18;97408.03;5000244;28;19953;-64
2023/01/13 05:29:10;;;;;;;;;;;;;;;9.21;65.18;97401.19;5013134;28;20231;-61
2023/01/13 05:31:39;;;;;;;;;;;;;;;9.26;64.70;97401.03;4992200;28;19933;-61
2023/01/13 05:34:07;;;;;;;;;;;;;;;9.21;65.03;97410.09;5010734;28;19932;-62
2023/01/13 05:36:35;;;;;;;;;;;;;;;9.23;64.85;97405.19;5011502;28;19926;-63
2023/01/13 05:39:04;;;;;;;;;;;;;;;9.32;64.61;97408.72;4995056;28;19979;-61
2023/01/13 05:44:17;;;;;;;;;;;;;;;9.25;64.90;97413.78;5011694;28;19929;-61
2023/01/13 05:46:46;;;;;;;;;;;;;;;9.21;65.41;97409.31;5004349;28;19929;-61
2023/01/13 05:52:09;;;;;;;;;;;;;;;9.22;65.16;97413.66;5005299;28;19926;-63
2023/01/13 05:54:37;;;;;;;;;;;;;;;9.31;64.86;97409.03;5011298;28;19929;-65
2023/01/13 05:57:05;;;;;;;;;;;;;;;9.27;65.25;97408.88;5010702;28;19925;-61
2023/01/13 05:59:34;;;;;;;;;;;;;;;9.29;65.38;97403.13;5011814;28;19977;-62
2023/01/13 06:02:26;;;;;;;;;;;;;;;9.24;65.32;97408.69;5008147;28;19925;-61
2023/01/13 06:05:22;;;;;;;;;;;;;;;9.17;65.75;97403.75;5009922;28;20433;-65
2023/01/13 06:07:52;;;;;;;;;;;;;;;9.13;65.69;97398.16;5010616;28;19925;-66
2023/01/13 06:10:20;;;;;;;;;;;;;;;9.20;65.70;97400.38;5010866;28;20379;-62
2023/01/13 06:12:49;;;;;;;;;;;;;;;9.21;65.58;97399.28;5009792;28;19926;-61
2023/01/13 06:15:18;;;;;;;;;;;;;;;9.24;64.92;97395.94;5012543;28;19926;-61
2023/01/13 06:17:46;;;;;;;;;;;;;;;9.28;65.08;97398.84;4987360;28;19926;-62
2023/01/13 06:20:14;;;;;;;;;;;;;;;9.27;64.72;97395.31;5011614;28;19938;-62
2023/01/13 06:22:43;;;;;;;;;;;;;;;9.38;64.35;97393.91;5012134;28;20337;-62
2023/01/13 06:25:14;;;;;;;;;;;;;;;9.32;64.27;97397.06;5006085;28;19934;-61
2023/01/13 06:27:44;;;;;;;;;;;;;;;9.33;64.10;97395.97;5013455;28;19956;-61
2023/01/13 06:30:13;;;;;;;;;;;;;;;9.36;64.20;97398.03;4995257;28;19932;-61
2023/01/13 06:32:45;;;;;;;;;;;;;;;9.32;64.13;97388.94;5015279;28;19926;-61
2023/01/13 06:35:14;;;;;;;;;;;;;;;9.34;63.74;97392.94;5007191;28;20438;-62
2023/01/13 06:37:42;;;;;;;;;;;;;;;9.35;63.51;97399.16;5014264;28;19957;-61
2023/01/13 06:40:11;;;;;;;;;;;;;;;9.27;64.04;97397.22;5007372;28;20243;-68
2023/01/13 06:45:26;;;;;;;;;;;;;;;9.34;63.48;97403.00;5009720;28;19940;-61
2023/01/13 06:47:55;;;;;;;;;;;;;;;9.28;63.83;97399.63;5014321;28;19933;-62
2023/01/13 06:50:24;;;;;;;;;;;;;;;9.22;63.87;97400.88;5008464;28;20008;-61
2023/01/13 06:52:54;;;;;;;;;;;;;;;9.34;62.93;97392.94;5010026;28;20011;-61
2023/01/13 06:55:22;;;;;;;;;;;;;;;9.29;63.59;97403.94;5013800;28;20031;-64
2023/01/13 06:57:52;;;;;;;;;;;;;;;9.21;63.85;97398.47;4995373;28;19932;-63
2023/01/13 07:00:22;;;;;;;;;;;;;;;9.41;63.51;97398.69;5010893;28;19932;-64
2023/01/13 07:02:50;;;;;;;;;;;;;;;9.26;63.86;97396.41;5011522;28;19929;-64
2023/01/13 07:05:20;;;;;;;;;;;;;;;9.25;63.85;97400.25;5011750;28;19932;-65
2023/01/13 07:07:48;;;;;;;;;;;;;;;9.38;62.96;97396.63;5013531;28;19957;-64
2023/01/13 07:10:21;;;;;;;;;;;;;;;9.45;62.63;97398.88;5013884;28;20031;-65
2023/01/13 07:18:30;;;;;;;;;;;;;;;9.40;62.19;97402.53;5009071;28;20355;-64
2023/01/13 07:21:00;;;;;;;;;;;;;;;9.40;62.09;97397.09;5014139;28;19941;-65
2023/01/13 07:23:27;;;;;;;;;;;;;;;9.32;62.47;97395.19;4995070;28;19932;-63
2023/01/13 07:25:56;;;;;;;;;;;;;;;9.37;62.01;97400.44;5008244;28;19932;-64
2023/01/13 07:28:25;;;;;;;;;;;;;;;9.37;62.37;97405.84;5004777;28;19952;-64
2023/01/13 07:30:54;;;;;;;;;;;;;;;9.27;62.13;97406.16;5009416;28;19926;-64
2023/01/13 07:33:23;;;;;;;;;;;;;;;9.34;62.20;97394.84;5010208;28;19933;-64
2023/01/13 07:35:56;;;;;;;;;;;;;;;9.22;62.33;97403.59;5008581;28;19935;-64
2023/01/13 07:38:24;;;;;;;;;;;;;;;9.31;61.59;97388.13;5008379;28;19932;-64
2023/01/13 07:40:52;;;;;;;;;;;;;;;9.15;62.12;97395.09;5011208;28;19932;-64
2023/01/13 07:43:44;;;;;;;;;;;;;;;9.34;61.46;97400.28;5006164;28;20295;-64
2023/01/13 07:46:13;;;;;;;;;;;;;;;9.30;61.99;97397.38;5006784;28;19925;-64
2023/01/13 07:48:41;;;;;;;;;;;;;;;9.15;62.11;97398.63;4997647;28;19999;-64
2023/01/13 07:51:10;;;;;;;;;;;;;;;9.09;62.76;97396.38;5012624;28;20334;-64
2023/01/13 07:53:39;;;;;;;;;;;;;;;9.15;62.01;97392.41;5015740;28;20298;-64
2023/01/13 07:56:07;;;;;;;;;;;;;;;9.22;61.67;97395.47;5011706;28;19933;-63
2023/01/13 07:58:36;;;;;;;;;;;;;;;9.15;61.98;97398.63;5011451;28;19976;-63
2023/01/13 08:01:07;;;;;;;;;;;;;;;9.13;62.45;97392.72;5003948;28;19937;-64
2023/01/13 08:03:37;;;;;;;;;;;;;;;9.19;61.56;97387.97;5003318;28;20365;-63
2023/01/13 08:08:58;;;;;;;;;;;;;;;9.28;62.07;97396.91;4990231;28;19925;-63
2023/01/13 08:11:30;;;;;;;;;;;;;;;9.25;61.94;97397.53;5007608;28;19992;-64
2023/01/13 08:14:00;;;;;;;;;;;;;;;9.24;61.45;97395.94;5004906;28;19948;-64
2023/01/13 08:16:29;;;;;;;;;;;;;;;9.26;61.90;97403.75;5011142;28;19965;-63
2023/01/13 08:18:58;;;;;;;;;;;;;;;9.47;61.25;97395.81;4995375;28;19936;-64
2023/01/13 08:21:26;;;;;;;;;;;;;;;9.48;60.71;97398.25;4994532;28;20550;-63
2023/01/13 08:23:55;;;;;;;;;;;;;;;9.30;61.66;97389.25;5011179;28;19925;-63
2023/01/13 08:26:23;;;;;;;;;;;;;;;9.36;61.42;97392.63;5012789;28;20426;-64
2023/01/13 08:28:51;;;;;;;;;;;;;;;9.41;60.77;97395.97;4992226;28;19932;-63
2023/01/13 08:31:19;;;;;;;;;;;;;;;9.45;61.01;97391.53;4995197;28;19932;-63
2023/01/13 08:33:52;;;;;;;;;;;;;;;9.30;61.60;97399.31;5009116;28;19933;-63
2023/01/13 08:36:24;;;;;;;;;;;;;;;9.39;61.63;97395.50;5010246;28;19929;-64
2023/01/13 08:38:52;;;;;;;;;;;;;;;9.42;62.41;97397.56;4993465;28;19968;-63
2023/01/13 08:41:53;;;;;;;;;;;;;;;9.50;61.86;97406.84;5012655;28;19925;-63
2023/01/13 08:44:09;;;;;;;;;;;;;;;9.37;63.79;97402.34;4989540;28;20016;-64
2023/01/13 08:46:38;;;;;;;;;;;;;;;9.31;64.43;97409.81;4998084;28;19930;-64
2023/01/13 08:49:06;;;;;;;;;;;;;;;9.34;63.85;97403.00;4990972;28;20367;-64
2023/01/13 08:51:35;;;;;;;;;;;;;;;9.37;63.82;97403.13;4996959;28;19940;-64
2023/01/13 08:54:28;;;;;;;;;;;;;;;9.43;64.54;97404.63;4990418;28;19926;-64
2023/01/13 08:56:57;;;;;;;;;;;;;;;9.49;64.66;97404.47;5006603;28;20738;-64
2023/01/13 08:59:25;;;;;;;;;;;;;;;9.50;64.24;97411.47;5009017;28;19925;-64
2023/01/13 09:02:19;;;;;;;;;;;;;;;9.49;64.47;97409.88;5006598;28;19925;-64
2023/01/13 09:05:12;;;;;;;;;;;;;;;9.48;64.32;97414.50;5008652;28;19929;-64
2023/01/13 09:07:47;;;;;;;;;;;;;;;9.54;64.30;97423.28;5014900;28;19952;-64
2023/01/13 09:10:15;;;;;;;;;;;;;;;9.62;64.17;97425.22;5008036;28;19935;-64
2023/01/13 09:15:30;;;;;;;;;;;;;;;9.63;65.05;97421.38;5010206;28;19933;-64
2023/01/13 09:17:59;;;;;;;;;;;;;;;9.66;64.25;97421.56;5010329;28;19926;-64
2023/01/13 09:20:27;;;;;;;;;;;;;;;9.67;64.51;97433.19;4995167;28;20401;-64
2023/01/13 09:23:21;;;;;;;;;;;;;;;9.80;64.64;97426.84;4995275;28;19940;-64
2023/01/13 09:25:49;;;;;;;;;;;;;;;9.76;65.24;97442.16;5009329;28;19926;-64
2023/01/13 09:28:18;;;;;;;;;;;;;;;9.77;65.05;97441.03;5004269;28;19939;-63
2023/01/13 09:30:46;;;;;;;;;;;;;;;9.73;65.61;97442.78;4991746;28;20008;-65
2023/01/13 09:36:01;;;;;;;;;;;;;;;9.67;67.00;97449.47;4990211;28;19925;-64
2023/01/13 09:38:31;;;;;;;;;;;;;;;9.88;66.14;97450.47;5011015;28;19925;-64
2023/01/13 09:40:59;;;;;;;;;;;;;;;9.75;66.94;97451.41;4990476;28;19926;-64
2023/01/13 09:49:06;;;;;;;;;;;;;;;9.60;69.66;97457.28;5007737;28;19968;-63
2023/01/13 09:51:36;;;;;;;;;;;;;;;9.61;70.35;97477.84;5010765;28;20394;-64
2023/01/13 09:54:08;;;;;;;;;;;;;;;9.53;71.59;97484.03;5009277;28;20373;-64
2023/01/13 09:56:38;;;;;;;;;;;;;;;9.44;72.62;97524.72;5007187;28;19926;-64
2023/01/13 09:59:08;;;;;;;;;;;;;;;9.22;74.37;97519.34;5010577;28;19976;-65
2023/01/13 10:01:39;;;;;;;;;;;;;;;9.02;75.13;97515.25;5006501;28;19948;-64
2023/01/13 10:04:09;;;;;;;;;;;;;;;8.89;76.58;97508.78;5009087;28;19933;-64
2023/01/13 10:06:41;;;;;;;;;;;;;;;8.92;76.63;97511.69;5014906;28;20055;-64
2023/01/13 10:09:12;;;;;;;;;;;;;;;8.91;76.14;97526.34;4986322;28;19933;-62
2023/01/13 10:14:27;;;;;;;;;;;;;;;8.71;76.32;97529.56;4997919;28;20390;-64
2023/01/13 10:16:58;;;;;;;;;;;;;;;8.60;76.86;97530.91;5009948;28;19925;-64
2023/01/13 10:19:29;;;;;;;;;;;;;;;8.60;77.12;97529.00;5002360;28;19929;-64
2023/01/13 10:22:11;;;;;;;;;;;;;;;8.66;77.35;97513.44;4993767;28;19925;-64
2023/01/13 10:27:39;;;;;;;;;;;;;;;8.52;78.44;97527.06;4991297;28;19984;-65
2023/01/13 10:30:13;;;;;;;;;;;;;;;8.45;79.01;97523.16;5009277;28;20356;-64
2023/01/13 10:32:41;;;;;;;;;;;;;;;8.50;79.12;97540.06;5007024;28;20295;-64
2023/01/13 10:35:09;;;;;;;;;;;;;;;8.54;79.44;97532.16;5010177;28;19968;-64
2023/01/13 10:37:37;;;;;;;;;;;;;;;8.52;79.65;97532.47;5010879;28;19948;-64
2023/01/13 10:40:12;;;;;;;;;;;;;;;8.47;80.14;97532.59;5006152;28;19940;-64
2023/01/13 10:42:41;;;;;;;;;;;;;;;8.56;79.85;97535.34;5009665;28;19926;-64
2023/01/13 10:45:17;;;;;;;;;;;;;;;8.51;80.29;97543.56;5010156;28;19933;-64
2023/01/13 10:47:46;;;;;;;;;;;;;;;8.51;81.14;97538.16;4990828;28;19926;-64
2023/01/13 10:50:22;;;;;;;;;;;;;;;8.57;80.17;97539.63;5006753;28;19937;-64
2023/01/13 10:56:02;;;;;;;;;;;;;;;8.55;79.99;97523.72;4988815;28;19945;-65
2023/01/13 10:58:33;;;;;;;;;;;;;;;8.56;80.19;97521.81;4988048;28;19929;-64
2023/01/13 11:01:02;;;;;;;;;;;;;;;8.58;79.71;97516.91;4987107;28;19926;-64
2023/01/13 11:03:55;;;;;;;;;;;;;;;8.71;78.18;97510.59;4985048;28;19934;-64
2023/01/13 11:06:24;;;;;;;;;;;;;;;8.75;78.09;97508.88;4981112;28;19953;-64
2023/01/13 11:08:54;;;;;;;;;;;;;;;8.80;77.42;97522.31;4986446;28;19926;-64
2023/01/13 11:11:49;;;;;;;;;;;;;;;8.74;77.03;97520.03;4989211;28;20454;-64
2023/01/13 11:14:39;;;;;;;;;;;;;;;8.70;77.14;97509.00;4981701;28;19926;-64
2023/01/13 11:17:22;;;;;;;;;;;;;;;8.91;75.93;97517.44;4986860;28;19934;-64
2023/01/13 11:19:54;;;;;;;;;;;;;;;8.95;76.01;97518.41;4993659;28;19965;-66
2023/01/13 11:22:23;;;;;;;;;;;;;;;8.94;75.09;97516.78;5007171;28;19933;-65
2023/01/13 11:25:17;;;;;;;;;;;;;;;8.96;75.39;97517.31;4992120;28;20375;-65
2023/01/13 11:27:46;;;;;;;;;;;;;;;8.89;75.86;97523.16;4991731;28;19929;-64
2023/01/13 11:30:22;;;;;;;;;;;;;;;9.01;74.57;97513.66;4995566;28;19984;-64
2023/01/13 11:32:58;;;;;;;;;;;;;;;9.12;74.80;97517.69;4993249;28;19930;-66
2023/01/13 11:35:29;;;;;;;;;;;;;;;9.03;74.47;97516.84;4989474;28;19929;-64
2023/01/13 11:38:00;;;;;;;;;;;;;;;9.03;74.90;97511.44;4989951;28;19926;-67
2023/01/13 11:40:29;;;;;;;;;;;;;;;9.12;74.35;97504.94;4992318;28;19926;-64
2023/01/13 11:43:00;;;;;;;;;;;;;;;9.10;73.95;97522.63;4993742;28;20400;-64
2023/01/13 11:45:56;;;;;;;;;;;;;;;9.00;74.67;97522.88;4989643;28;20295;-64
2023/01/13 11:48:27;;;;;;;;;;;;;;;8.87;75.06;97514.53;4993443;28;19926;-64
2023/01/13 11:50:57;;;;;;;;;;;;;;;8.81;74.96;97523.91;4993602;28;19926;-64
2023/01/13 11:53:32;;;;;;;;;;;;;;;8.83;74.20;97521.66;4992082;28;19977;-64
2023/01/13 11:56:55;;;;;;;;;;;;;;;8.85;74.07;97535.72;5011257;28;19975;-64
2023/01/13 11:59:38;;;;;;;;;;;;;;;8.85;73.72;97535.72;5008260;28;20209;-66
2023/01/13 12:02:31;;;;;;;;;;;;;;;8.79;74.03;97536.13;5011228;28;19929;-64
2023/01/13 12:05:03;;;;;;;;;;;;;;;8.81;73.61;97531.22;5011334;28;20306;-64
2023/01/13 12:07:59;;;;;;;;;;;;;;;8.79;73.39;97528.84;5012024;28;19925;-64
2023/01/13 12:10:56;;;;;;;;;;;;;;;8.80;74.53;97535.03;5013132;28;19948;-64
2023/01/13 12:13:26;;;;;;;;;;;;;;;8.76;74.00;97540.28;5011019;28;19969;-64
2023/01/13 12:16:09;;;;;;;;;;;;;;;8.82;72.31;97541.75;4995593;28;19995;-65
2023/01/13 12:18:55;;;;;;;;;;;;;;;8.85;72.87;97543.84;4995225;28;19925;-65
2023/01/13 12:21:25;;;;;;;;;;;;;;;8.87;72.76;97540.81;5000727;28;19948;-65
2023/01/13 12:24:01;;;;;;;;;;;;;;;8.91;71.89;97564.28;4991818;28;20468;-64
2023/01/13 12:29:24;;;;;;;;;;;;;;;8.88;71.86;97543.22;5003043;28;19925;-65
2023/01/13 12:31:54;;;;;;;;;;;;;;;8.97;70.61;97532.44;5011585;28;19957;-68
2023/01/13 12:34:27;;;;;;;;;;;;;;;8.93;71.41;97540.38;5012461;28;19926;-65
2023/01/13 12:36:59;;;;;;;;;;;;;;;8.91;70.96;97531.78;5005627;28;19941;-64
2023/01/13 12:39:29;;;;;;;;;;;;;;;8.88;71.49;97524.25;4995505;28;19932;-64
2023/01/13 12:45:06;;;;;;;;;;;;;;;8.84;72.42;97520.59;4984024;28;19926;-65
2023/01/13 12:47:35;;;;;;;;;;;;;;;8.89;70.97;97525.03;5006662;28;20036;-64
2023/01/13 12:50:34;;;;;;;;;;;;;;;8.89;70.70;97517.75;5012003;28;19926;-65
2023/01/13 12:53:28;;;;;;;;;;;;;;;8.93;71.09;97523.31;5012089;28;19926;-64
2023/01/13 12:56:22;;;;;;;;;;;;;;;8.94;71.04;97522.22;5002282;28;19930;-65
2023/01/13 12:59:47;;;;;;;;;;;;;;;9.00;69.92;97514.75;4990640;28;20057;-65
2023/01/13 13:05:39;;;;;;;;;;;;;;;8.87;70.46;97529.97;4989823;28;19958;-64
2023/01/13 13:08:14;;;;;;;;;;;;;;;8.82;70.87;97528.19;4982250;28;19925;-65
2023/01/13 13:13:42;;;;;;;;;;;;;;;8.82;70.87;97539.03;4992496;28;19977;-64
2023/01/13 13:16:35;;;;;;;;;;;;;;;8.92;69.42;97530.66;4990216;28;20396;-64
2023/01/13 13:19:30;;;;;;;;;;;;;;;8.90;69.63;97538.31;4987874;28;19926;-64
2023/01/13 13:22:17;;;;;;;;;;;;;;;8.92;69.51;97521.72;4990406;28;20339;-64
2023/01/13 13:25:00;;;;;;;;;;;;;;;8.88;69.49;97543.22;4985395;28;19932;-64
2023/01/13 13:27:54;;;;;;;;;;;;;;;8.94;69.93;97533.03;4992922;28;19980;-64
2023/01/13 13:30:25;;;;;;;;;;;;;;;8.93;69.07;97534.16;5004936;28;19932;-64
2023/01/13 13:32:58;;;;;;;;;;;;;;;8.96;67.98;97554.44;4992610;28;19926;-64
2023/01/13 13:35:32;;;;;;;;;;;;;;;8.89;66.69;97552.13;5005545;28;19932;-64
2023/01/13 13:46:48;;;;;;;;;;;;;;;8.48;66.53;97569.38;4900398;29;19927;-64
2023/01/13 13:49:17;;;;;;;;;;;;;;;8.34;68.03;97576.69;4959010;28;19965;-69
2023/01/13 13:51:48;;;;;;;;;;;;;;;8.25;67.96;97576.59;4993042;28;20384;-64
2023/01/13 13:54:16;;;;;;;;;;;;;;;8.23;67.96;97584.22;4994891;28;19926;-65
2023/01/13 13:56:45;;;;;;;;;;;;;;;8.31;68.47;97591.66;4977873;28;19926;-64
2023/01/13 13:59:14;;;;;;;;;;;;;;;8.35;68.06;97589.91;4986000;28;19941;-64
2023/01/13 14:01:43;;;;;;;;;;;;;;;8.32;68.88;97600.56;4990023;28;19933;-64
2023/01/13 14:04:39;;;;;;;;;;;;;;;8.34;69.20;97604.56;4992904;28;19948;-65
2023/01/13 14:07:16;;;;;;;;;;;;;;;8.29;69.32;97601.97;4989340;28;19926;-65
2023/01/13 14:09:45;;;;;;;;;;;;;;;8.36;68.66;97601.56;4991217;28;19926;-65
2023/01/13 14:12:16;;;;;;;;;;;;;;;8.43;68.05;97595.75;4985769;28;19988;-65
2023/01/13 14:14:44;;;;;;;;;;;;;;;8.43;68.63;97606.59;4987110;28;20388;-66
2023/01/13 14:17:17;;;;;;;;;;;;;;;8.48;67.50;97603.78;4989082;28;20346;-65
2023/01/13 14:19:52;;;;;;;;;;;;;;;8.39;68.36;97592.84;4990885;28;19964;-65
2023/01/13 14:22:20;;;;;;;;;;;;;;;8.51;67.51;97605.84;4984522;28;19937;-67
2023/01/13 14:25:13;;;;;;;;;;;;;;;8.50;67.53;97599.63;4990830;28;20298;-65
2023/01/13 14:27:42;;;;;;;;;;;;;;;8.49;67.50;97616.19;4989655;28;19930;-65
2023/01/13 14:30:11;;;;;;;;;;;;;;;8.40;65.70;97606.06;4985854;28;20772;-64
2023/01/13 14:32:39;;;;;;;;;;;;;;;8.38;67.51;97612.91;4988097;28;20004;-64
2023/01/13 14:35:10;;;;;;;;;;;;;;;8.35;68.00;97606.16;4990944;28;19926;-64
2023/01/13 14:37:42;;;;;;;;;;;;;;;8.34;68.73;97601.84;4989605;28;20335;-65
2023/01/13 14:40:26;;;;;;;;;;;;;;;8.36;68.90;97607.81;5009799;28;19984;-68
2023/01/13 14:42:57;;;;;;;;;;;;;;;8.33;69.40;97586.72;4980592;28;20394;-66
2023/01/13 14:45:25;;;;;;;;;;;;;;;8.49;68.07;97599.94;4991390;28;19964;-65
2023/01/13 14:48:18;;;;;;;;;;;;;;;8.46;67.39;97614.88;4991272;28;20383;-65
2023/01/13 14:50:49;;;;;;;;;;;;;;;8.30;66.22;97611.66;4995653;28;19976;-65
2023/01/13 14:56:46;;;;;;;;;;;;;;;8.26;64.33;97623.44;5003949;28;19961;-64
2023/01/13 14:59:47;;;;;;;;;;;;;;;8.24;63.52;97625.63;5011833;28;19925;-64